sensor_id;sensor_type;location;lat;lon;timestamp;P1;durP1;ratioP1;P2;durP2;ratioP2
51179;SDS011;37243;49.814;8.652;2023-01-15T00:00:18;1.60;;;1.50;;
51179;SDS011;37243;49.814;8.652;2023-01-15T00:02:49;1.50;;;1.40;;
51179;SDS011;37243;49.814;8.652;2023-01-15T00:05:17;1.70;;;1.60;;
51179;SDS011;37243;49.814;8.652;2023-01-15T00:07:45;1.70;;;1.60;;
51179;SDS011;37243;49.814;8.652;2023-01-15T00:10:14;1.58;;;1.48;;
51179;SDS011;37243;49.814;8.652;2023-01-15T00:12:42;1.67;;;1.58;;
51179;SDS011;37243;49.814;8.652;2023-01-15T00:15:11;1.70;;;1.33;;
51179;SDS011;37243;49.814;8.652;2023-01-15T00:17:39;2.13;;;1.65;;
51179;SDS011;37243;49.814;8.652;2023-01-15T00:20:10;1.52;;;1.42;;
51179;SDS011;37243;49.814;8.652;2023-01-15T00:22:39;1.45;;;1.10;;
51179;SDS011;37243;49.814;8.652;2023-01-15T00:25:08;1.60;;;1.50;;
51179;SDS011;37243;49.814;8.652;2023-01-15T00:27:49;1.75;;;1.40;;
51179;SDS011;37243;49.814;8.652;2023-01-15T00:30:18;1.45;;;1.35;;
51179;SDS011;37243;49.814;8.652;2023-01-15T00:32:48;1.92;;;1.35;;
51179;SDS011;37243;49.814;8.652;2023-01-15T00:35:20;1.20;;;1.20;;
51179;SDS011;37243;49.814;8.652;2023-01-15T00:37:49;1.40;;;1.17;;
51179;SDS011;37243;49.814;8.652;2023-01-15T00:40:20;1.40;;;1.30;;
51179;SDS011;37243;49.814;8.652;2023-01-15T00:42:48;1.35;;;1.30;;
51179;SDS011;37243;49.814;8.652;2023-01-15T00:45:16;1.40;;;1.23;;
51179;SDS011;37243;49.814;8.652;2023-01-15T00:47:45;1.35;;;1.25;;
51179;SDS011;37243;49.814;8.652;2023-01-15T00:52:45;1.55;;;1.45;;
51179;SDS011;37243;49.814;8.652;2023-01-15T00:55:13;1.10;;;1.10;;
51179;SDS011;37243;49.814;8.652;2023-01-15T00:57:42;1.20;;;1.10;;
51179;SDS011;37243;49.814;8.652;2023-01-15T01:00:10;1.55;;;1.45;;
51179;SDS011;37243;49.814;8.652;2023-01-15T01:02:39;1.83;;;1.30;;
51179;SDS011;37243;49.814;8.652;2023-01-15T01:05:08;1.70;;;1.20;;
51179;SDS011;37243;49.814;8.652;2023-01-15T01:07:36;1.38;;;1.27;;
51179;SDS011;37243;49.814;8.652;2023-01-15T01:10:07;1.60;;;1.50;;
51179;SDS011;37243;49.814;8.652;2023-01-15T01:12:36;1.30;;;1.30;;
51179;SDS011;37243;49.814;8.652;2023-01-15T01:15:05;1.10;;;1.10;;
51179;SDS011;37243;49.814;8.652;2023-01-15T01:17:35;1.00;;;1.00;;
51179;SDS011;37243;49.814;8.652;2023-01-15T01:20:04;0.90;;;0.90;;
51179;SDS011;37243;49.814;8.652;2023-01-15T01:22:34;1.00;;;1.00;;
51179;SDS011;37243;49.814;8.652;2023-01-15T01:25:02;2.03;;;1.40;;
51179;SDS011;37243;49.814;8.652;2023-01-15T01:27:34;3.22;;;1.48;;
51179;SDS011;37243;49.814;8.652;2023-01-15T01:30:02;1.30;;;1.27;;
51179;SDS011;37243;49.814;8.652;2023-01-15T01:32:31;1.55;;;1.42;;
51179;SDS011;37243;49.814;8.652;2023-01-15T01:34:59;1.33;;;1.23;;
51179;SDS011;37243;49.814;8.652;2023-01-15T01:37:28;1.30;;;1.30;;
51179;SDS011;37243;49.814;8.652;2023-01-15T01:39:56;1.35;;;1.25;;
51179;SDS011;37243;49.814;8.652;2023-01-15T01:42:24;1.58;;;1.27;;
51179;SDS011;37243;49.814;8.652;2023-01-15T01:45:07;1.08;;;1.08;;
51179;SDS011;37243;49.814;8.652;2023-01-15T01:47:48;0.98;;;0.98;;
51179;SDS011;37243;49.814;8.652;2023-01-15T01:50:17;1.40;;;1.30;;
51179;SDS011;37243;49.814;8.652;2023-01-15T01:52:46;1.10;;;1.10;;
51179;SDS011;37243;49.814;8.652;2023-01-15T01:55:19;0.95;;;0.95;;
51179;SDS011;37243;49.814;8.652;2023-01-15T01:57:50;1.75;;;1.35;;
51179;SDS011;37243;49.814;8.652;2023-01-15T02:00:24;1.58;;;1.00;;
51179;SDS011;37243;49.814;8.652;2023-01-15T02:02:52;1.63;;;1.52;;
51179;SDS011;37243;49.814;8.652;2023-01-15T02:05:24;2.00;;;1.17;;
51179;SDS011;37243;49.814;8.652;2023-01-15T02:07:56;1.35;;;1.25;;
51179;SDS011;37243;49.814;8.652;2023-01-15T02:10:24;1.33;;;1.23;;
51179;SDS011;37243;49.814;8.652;2023-01-15T02:12:54;1.00;;;1.00;;
51179;SDS011;37243;49.814;8.652;2023-01-15T02:15:31;0.98;;;0.98;;
51179;SDS011;37243;49.814;8.652;2023-01-15T02:18:05;1.00;;;1.00;;
51179;SDS011;37243;49.814;8.652;2023-01-15T02:20:40;1.30;;;1.20;;
51179;SDS011;37243;49.814;8.652;2023-01-15T02:23:19;1.13;;;1.13;;
51179;SDS011;37243;49.814;8.652;2023-01-15T02:26:02;1.00;;;1.00;;
51179;SDS011;37243;49.814;8.652;2023-01-15T02:28:43;1.30;;;1.20;;
51179;SDS011;37243;49.814;8.652;2023-01-15T02:31:14;1.10;;;1.00;;
51179;SDS011;37243;49.814;8.652;2023-01-15T02:33:46;1.05;;;1.05;;
51179;SDS011;37243;49.814;8.652;2023-01-15T02:36:18;0.98;;;0.98;;
51179;SDS011;37243;49.814;8.652;2023-01-15T02:38:50;1.55;;;1.00;;
51179;SDS011;37243;49.814;8.652;2023-01-15T02:41:23;0.93;;;0.93;;
51179;SDS011;37243;49.814;8.652;2023-01-15T02:43:58;0.98;;;0.98;;
51179;SDS011;37243;49.814;8.652;2023-01-15T02:46:31;0.95;;;0.95;;
51179;SDS011;37243;49.814;8.652;2023-01-15T02:49:03;1.20;;;1.20;;
51179;SDS011;37243;49.814;8.652;2023-01-15T02:51:36;1.30;;;1.20;;
51179;SDS011;37243;49.814;8.652;2023-01-15T02:54:09;1.10;;;1.10;;
51179;SDS011;37243;49.814;8.652;2023-01-15T02:56:40;1.38;;;1.27;;
51179;SDS011;37243;49.814;8.652;2023-01-15T02:59:16;1.02;;;0.80;;
51179;SDS011;37243;49.814;8.652;2023-01-15T03:01:52;0.80;;;0.80;;
51179;SDS011;37243;49.814;8.652;2023-01-15T03:04:25;1.13;;;1.13;;
51179;SDS011;37243;49.814;8.652;2023-01-15T03:06:59;1.30;;;1.20;;
51179;SDS011;37243;49.814;8.652;2023-01-15T03:09:33;1.40;;;1.30;;
51179;SDS011;37243;49.814;8.652;2023-01-15T03:12:03;1.20;;;1.20;;
51179;SDS011;37243;49.814;8.652;2023-01-15T03:14:43;1.10;;;1.10;;
51179;SDS011;37243;49.814;8.652;2023-01-15T03:17:22;0.90;;;0.90;;
51179;SDS011;37243;49.814;8.652;2023-01-15T03:19:57;0.88;;;0.85;;
51179;SDS011;37243;49.814;8.652;2023-01-15T03:22:29;0.90;;;0.90;;
51179;SDS011;37243;49.814;8.652;2023-01-15T03:25:02;0.90;;;0.90;;
51179;SDS011;37243;49.814;8.652;2023-01-15T03:27:34;1.20;;;1.02;;
51179;SDS011;37243;49.814;8.652;2023-01-15T03:30:05;0.80;;;0.80;;
51179;SDS011;37243;49.814;8.652;2023-01-15T03:32:35;0.88;;;0.88;;
51179;SDS011;37243;49.814;8.652;2023-01-15T03:35:04;0.90;;;0.90;;
51179;SDS011;37243;49.814;8.652;2023-01-15T03:37:35;0.93;;;0.93;;
51179;SDS011;37243;49.814;8.652;2023-01-15T03:40:04;0.73;;;0.73;;
51179;SDS011;37243;49.814;8.652;2023-01-15T03:42:36;0.93;;;0.93;;
51179;SDS011;37243;49.814;8.652;2023-01-15T03:45:37;1.00;;;0.93;;
51179;SDS011;37243;49.814;8.652;2023-01-15T03:48:10;0.90;;;0.90;;
51179;SDS011;37243;49.814;8.652;2023-01-15T03:50:46;1.02;;;1.02;;
51179;SDS011;37243;49.814;8.652;2023-01-15T03:53:19;0.90;;;0.90;;
51179;SDS011;37243;49.814;8.652;2023-01-15T03:55:51;1.23;;;1.13;;
51179;SDS011;37243;49.814;8.652;2023-01-15T03:58:24;1.17;;;1.17;;
51179;SDS011;37243;49.814;8.652;2023-01-15T04:00:59;0.70;;;0.70;;
51179;SDS011;37243;49.814;8.652;2023-01-15T04:03:30;0.80;;;0.80;;
51179;SDS011;37243;49.814;8.652;2023-01-15T04:06:00;0.70;;;0.70;;
51179;SDS011;37243;49.814;8.652;2023-01-15T04:08:31;1.00;;;1.00;;
51179;SDS011;37243;49.814;8.652;2023-01-15T04:11:02;0.77;;;0.77;;
51179;SDS011;37243;49.814;8.652;2023-01-15T04:13:30;0.70;;;0.70;;
51179;SDS011;37243;49.814;8.652;2023-01-15T04:16:01;0.77;;;0.77;;
51179;SDS011;37243;49.814;8.652;2023-01-15T04:18:29;1.00;;;1.00;;
51179;SDS011;37243;49.814;8.652;2023-01-15T04:20:58;0.85;;;0.85;;
51179;SDS011;37243;49.814;8.652;2023-01-15T04:23:26;0.70;;;0.70;;
51179;SDS011;37243;49.814;8.652;2023-01-15T04:25:55;0.85;;;0.85;;
51179;SDS011;37243;49.814;8.652;2023-01-15T04:28:23;1.30;;;0.70;;
51179;SDS011;37243;49.814;8.652;2023-01-15T04:30:51;0.70;;;0.70;;
51179;SDS011;37243;49.814;8.652;2023-01-15T04:33:26;1.20;;;0.75;;
51179;SDS011;37243;49.814;8.652;2023-01-15T04:35:57;0.80;;;0.80;;
51179;SDS011;37243;49.814;8.652;2023-01-15T04:38:26;0.90;;;0.90;;
51179;SDS011;37243;49.814;8.652;2023-01-15T04:40:54;1.08;;;0.93;;
51179;SDS011;37243;49.814;8.652;2023-01-15T04:43:35;1.00;;;1.00;;
51179;SDS011;37243;49.814;8.652;2023-01-15T04:46:19;0.68;;;0.68;;
51179;SDS011;37243;49.814;8.652;2023-01-15T04:48:50;0.68;;;0.68;;
51179;SDS011;37243;49.814;8.652;2023-01-15T04:51:19;0.80;;;0.80;;
51179;SDS011;37243;49.814;8.652;2023-01-15T04:53:47;0.80;;;0.80;;
51179;SDS011;37243;49.814;8.652;2023-01-15T04:56:15;0.70;;;0.70;;
51179;SDS011;37243;49.814;8.652;2023-01-15T04:58:43;0.73;;;0.73;;
51179;SDS011;37243;49.814;8.652;2023-01-15T05:01:12;0.80;;;0.80;;
51179;SDS011;37243;49.814;8.652;2023-01-15T05:03:41;0.77;;;0.77;;
51179;SDS011;37243;49.814;8.652;2023-01-15T05:06:12;0.98;;;0.98;;
51179;SDS011;37243;49.814;8.652;2023-01-15T05:08:42;0.70;;;0.70;;
51179;SDS011;37243;49.814;8.652;2023-01-15T05:11:10;0.68;;;0.68;;
51179;SDS011;37243;49.814;8.652;2023-01-15T05:13:39;0.70;;;0.70;;
51179;SDS011;37243;49.814;8.652;2023-01-15T05:16:08;0.85;;;0.85;;
51179;SDS011;37243;49.814;8.652;2023-01-15T05:18:37;0.77;;;0.77;;
51179;SDS011;37243;49.814;8.652;2023-01-15T05:21:05;0.90;;;0.90;;
51179;SDS011;37243;49.814;8.652;2023-01-15T05:23:42;0.77;;;0.77;;
51179;SDS011;37243;49.814;8.652;2023-01-15T05:26:11;0.80;;;0.80;;
51179;SDS011;37243;49.814;8.652;2023-01-15T05:28:40;1.38;;;1.00;;
51179;SDS011;37243;49.814;8.652;2023-01-15T05:31:09;0.60;;;0.60;;
51179;SDS011;37243;49.814;8.652;2023-01-15T05:33:38;0.88;;;0.88;;
51179;SDS011;37243;49.814;8.652;2023-01-15T05:36:08;1.30;;;0.80;;
51179;SDS011;37243;49.814;8.652;2023-01-15T05:38:38;0.68;;;0.68;;
51179;SDS011;37243;49.814;8.652;2023-01-15T05:41:10;0.70;;;0.57;;
51179;SDS011;37243;49.814;8.652;2023-01-15T05:43:53;0.70;;;0.70;;
51179;SDS011;37243;49.814;8.652;2023-01-15T05:46:22;0.80;;;0.80;;
51179;SDS011;37243;49.814;8.652;2023-01-15T05:48:50;0.70;;;0.70;;
51179;SDS011;37243;49.814;8.652;2023-01-15T05:51:19;0.77;;;0.77;;
51179;SDS011;37243;49.814;8.652;2023-01-15T05:53:47;0.70;;;0.70;;
51179;SDS011;37243;49.814;8.652;2023-01-15T05:56:18;0.63;;;0.63;;
51179;SDS011;37243;49.814;8.652;2023-01-15T05:58:46;0.68;;;0.68;;
51179;SDS011;37243;49.814;8.652;2023-01-15T06:01:14;0.70;;;0.70;;
51179;SDS011;37243;49.814;8.652;2023-01-15T06:03:43;0.82;;;0.65;;
51179;SDS011;37243;49.814;8.652;2023-01-15T06:06:12;0.88;;;0.88;;
51179;SDS011;37243;49.814;8.652;2023-01-15T06:08:42;0.77;;;0.57;;
51179;SDS011;37243;49.814;8.652;2023-01-15T06:11:11;0.73;;;0.70;;
51179;SDS011;37243;49.814;8.652;2023-01-15T06:13:42;0.63;;;0.63;;
51179;SDS011;37243;49.814;8.652;2023-01-15T06:16:11;0.75;;;0.75;;
51179;SDS011;37243;49.814;8.652;2023-01-15T06:18:39;0.40;;;0.40;;
51179;SDS011;37243;49.814;8.652;2023-01-15T06:21:09;0.73;;;0.73;;
51179;SDS011;37243;49.814;8.652;2023-01-15T06:23:39;0.70;;;0.70;;
51179;SDS011;37243;49.814;8.652;2023-01-15T06:26:10;0.93;;;0.93;;
51179;SDS011;37243;49.814;8.652;2023-01-15T06:28:43;0.60;;;0.60;;
51179;SDS011;37243;49.814;8.652;2023-01-15T06:31:12;0.77;;;0.60;;
51179;SDS011;37243;49.814;8.652;2023-01-15T06:33:42;0.60;;;0.60;;
51179;SDS011;37243;49.814;8.652;2023-01-15T06:36:12;0.60;;;0.60;;
51179;SDS011;37243;49.814;8.652;2023-01-15T06:38:42;0.70;;;0.70;;
51179;SDS011;37243;49.814;8.652;2023-01-15T06:41:12;1.33;;;0.70;;
51179;SDS011;37243;49.814;8.652;2023-01-15T06:43:59;0.50;;;0.50;;
51179;SDS011;37243;49.814;8.652;2023-01-15T06:46:41;0.85;;;0.60;;
51179;SDS011;37243;49.814;8.652;2023-01-15T06:49:24;0.63;;;0.63;;
51179;SDS011;37243;49.814;8.652;2023-01-15T06:51:52;0.60;;;0.60;;
51179;SDS011;37243;49.814;8.652;2023-01-15T06:54:20;0.70;;;0.70;;
51179;SDS011;37243;49.814;8.652;2023-01-15T06:56:48;0.55;;;0.55;;
51179;SDS011;37243;49.814;8.652;2023-01-15T06:59:19;0.55;;;0.55;;
51179;SDS011;37243;49.814;8.652;2023-01-15T07:01:48;0.57;;;0.55;;
51179;SDS011;37243;49.814;8.652;2023-01-15T07:04:16;0.50;;;0.50;;
51179;SDS011;37243;49.814;8.652;2023-01-15T07:06:44;0.50;;;0.50;;
51179;SDS011;37243;49.814;8.652;2023-01-15T07:09:13;0.50;;;0.50;;
51179;SDS011;37243;49.814;8.652;2023-01-15T07:11:41;0.50;;;0.50;;
51179;SDS011;37243;49.814;8.652;2023-01-15T07:14:16;0.47;;;0.45;;
51179;SDS011;37243;49.814;8.652;2023-01-15T07:16:48;0.50;;;0.50;;
51179;SDS011;37243;49.814;8.652;2023-01-15T07:19:17;0.40;;;0.40;;
51179;SDS011;37243;49.814;8.652;2023-01-15T07:21:46;0.50;;;0.50;;
51179;SDS011;37243;49.814;8.652;2023-01-15T07:24:15;0.65;;;0.63;;
51179;SDS011;37243;49.814;8.652;2023-01-15T07:26:43;0.63;;;0.63;;
51179;SDS011;37243;49.814;8.652;2023-01-15T07:29:12;0.55;;;0.55;;
51179;SDS011;37243;49.814;8.652;2023-01-15T07:31:41;0.93;;;0.70;;
51179;SDS011;37243;49.814;8.652;2023-01-15T07:34:12;0.80;;;0.60;;
51179;SDS011;37243;49.814;8.652;2023-01-15T07:36:41;0.88;;;0.70;;
51179;SDS011;37243;49.814;8.652;2023-01-15T07:39:09;2.58;;;0.82;;
51179;SDS011;37243;49.814;8.652;2023-01-15T07:41:38;0.90;;;0.63;;
51179;SDS011;37243;49.814;8.652;2023-01-15T07:44:19;0.77;;;0.52;;
51179;SDS011;37243;49.814;8.652;2023-01-15T07:47:01;0.60;;;0.50;;
51179;SDS011;37243;49.814;8.652;2023-01-15T07:49:45;0.73;;;0.60;;
51179;SDS011;37243;49.814;8.652;2023-01-15T07:52:14;1.23;;;0.60;;
51179;SDS011;37243;49.814;8.652;2023-01-15T07:54:43;0.80;;;0.80;;
51179;SDS011;37243;49.814;8.652;2023-01-15T07:57:12;1.13;;;0.95;;
51179;SDS011;37243;49.814;8.652;2023-01-15T07:59:43;0.82;;;0.60;;
51179;SDS011;37243;49.814;8.652;2023-01-15T08:02:11;2.35;;;1.17;;
51179;SDS011;37243;49.814;8.652;2023-01-15T08:04:39;1.60;;;1.00;;
51179;SDS011;37243;49.814;8.652;2023-01-15T08:07:12;1.88;;;0.90;;
51179;SDS011;37243;49.814;8.652;2023-01-15T08:09:44;1.95;;;0.85;;
51179;SDS011;37243;49.814;8.652;2023-01-15T08:12:13;0.70;;;0.70;;
51179;SDS011;37243;49.814;8.652;2023-01-15T08:14:53;3.33;;;1.00;;
51179;SDS011;37243;49.814;8.652;2023-01-15T08:17:34;1.38;;;1.13;;
51179;SDS011;37243;49.814;8.652;2023-01-15T08:20:04;0.88;;;0.88;;
51179;SDS011;37243;49.814;8.652;2023-01-15T08:22:37;2.10;;;0.90;;
51179;SDS011;37243;49.814;8.652;2023-01-15T08:25:06;1.05;;;0.95;;
51179;SDS011;37243;49.814;8.652;2023-01-15T08:27:36;1.92;;;1.02;;
51179;SDS011;37243;49.814;8.652;2023-01-15T08:30:06;1.73;;;1.20;;
51179;SDS011;37243;49.814;8.652;2023-01-15T08:32:36;2.75;;;1.10;;
51179;SDS011;37243;49.814;8.652;2023-01-15T08:35:05;2.25;;;1.00;;
51179;SDS011;37243;49.814;8.652;2023-01-15T08:37:34;2.20;;;1.10;;
51179;SDS011;37243;49.814;8.652;2023-01-15T08:40:05;3.63;;;1.00;;
51179;SDS011;37243;49.814;8.652;2023-01-15T08:42:35;2.40;;;1.13;;
51179;SDS011;37243;49.814;8.652;2023-01-15T08:45:03;1.67;;;0.93;;
51179;SDS011;37243;49.814;8.652;2023-01-15T08:47:32;1.48;;;1.10;;
51179;SDS011;37243;49.814;8.652;2023-01-15T08:50:01;2.05;;;1.05;;
51179;SDS011;37243;49.814;8.652;2023-01-15T08:52:30;1.00;;;0.90;;
51179;SDS011;37243;49.814;8.652;2023-01-15T08:55:01;1.73;;;1.02;;
51179;SDS011;37243;49.814;8.652;2023-01-15T08:57:29;2.13;;;1.00;;
51179;SDS011;37243;49.814;8.652;2023-01-15T08:59:57;1.02;;;0.90;;
51179;SDS011;37243;49.814;8.652;2023-01-15T09:02:26;1.17;;;0.95;;
51179;SDS011;37243;49.814;8.652;2023-01-15T09:04:54;3.67;;;1.13;;
51179;SDS011;37243;49.814;8.652;2023-01-15T09:07:22;2.08;;;0.90;;
51179;SDS011;37243;49.814;8.652;2023-01-15T09:09:51;1.52;;;1.27;;
51179;SDS011;37243;49.814;8.652;2023-01-15T09:12:22;0.88;;;0.88;;
51179;SDS011;37243;49.814;8.652;2023-01-15T09:14:51;1.20;;;1.10;;
51179;SDS011;37243;49.814;8.652;2023-01-15T09:17:20;2.10;;;1.17;;
51179;SDS011;37243;49.814;8.652;2023-01-15T09:19:48;1.30;;;1.10;;
51179;SDS011;37243;49.814;8.652;2023-01-15T09:22:16;1.75;;;1.10;;
51179;SDS011;37243;49.814;8.652;2023-01-15T09:24:45;0.93;;;0.93;;
51179;SDS011;37243;49.814;8.652;2023-01-15T09:27:13;2.72;;;1.20;;
51179;SDS011;37243;49.814;8.652;2023-01-15T09:29:44;2.25;;;0.90;;
51179;SDS011;37243;49.814;8.652;2023-01-15T09:32:12;1.00;;;0.90;;
51179;SDS011;37243;49.814;8.652;2023-01-15T09:34:40;2.67;;;1.10;;
51179;SDS011;37243;49.814;8.652;2023-01-15T09:37:08;3.28;;;1.20;;
51179;SDS011;37243;49.814;8.652;2023-01-15T09:39:37;1.00;;;0.90;;
51179;SDS011;37243;49.814;8.652;2023-01-15T09:42:10;0.90;;;0.77;;
51179;SDS011;37243;49.814;8.652;2023-01-15T09:44:54;1.30;;;1.17;;
51179;SDS011;37243;49.814;8.652;2023-01-15T09:47:37;2.13;;;1.00;;
51179;SDS011;37243;49.814;8.652;2023-01-15T09:50:14;1.08;;;0.90;;
51179;SDS011;37243;49.814;8.652;2023-01-15T09:55:41;1.80;;;0.90;;
51179;SDS011;37243;49.814;8.652;2023-01-15T09:58:14;1.08;;;0.90;;
51179;SDS011;37243;49.814;8.652;2023-01-15T10:00:48;1.10;;;1.02;;
51179;SDS011;37243;49.814;8.652;2023-01-15T10:03:27;0.80;;;0.77;;
51179;SDS011;37243;49.814;8.652;2023-01-15T10:06:04;1.17;;;0.95;;
51179;SDS011;37243;49.814;8.652;2023-01-15T10:08:39;0.90;;;0.90;;
51179;SDS011;37243;49.814;8.652;2023-01-15T10:11:19;1.02;;;0.98;;
51179;SDS011;37243;49.814;8.652;2023-01-15T10:14:12;1.40;;;1.05;;
51179;SDS011;37243;49.814;8.652;2023-01-15T10:16:51;0.95;;;0.68;;
51179;SDS011;37243;49.814;8.652;2023-01-15T10:19:19;0.93;;;0.90;;
51179;SDS011;37243;49.814;8.652;2023-01-15T10:21:50;1.25;;;1.15;;
51179;SDS011;37243;49.814;8.652;2023-01-15T10:24:26;1.17;;;0.85;;
51179;SDS011;37243;49.814;8.652;2023-01-15T10:27:04;1.00;;;1.00;;
51179;SDS011;37243;49.814;8.652;2023-01-15T10:29:44;1.10;;;1.00;;
51179;SDS011;37243;49.814;8.652;2023-01-15T10:32:25;1.13;;;0.90;;
51179;SDS011;37243;49.814;8.652;2023-01-15T10:35:08;0.93;;;0.82;;
51179;SDS011;37243;49.814;8.652;2023-01-15T10:37:52;0.90;;;0.90;;
51179;SDS011;37243;49.814;8.652;2023-01-15T10:40:30;1.00;;;0.90;;
51179;SDS011;37243;49.814;8.652;2023-01-15T10:43:09;2.05;;;0.88;;
51179;SDS011;37243;49.814;8.652;2023-01-15T10:45:43;1.10;;;1.00;;
51179;SDS011;37243;49.814;8.652;2023-01-15T10:48:18;1.60;;;0.75;;
51179;SDS011;37243;49.814;8.652;2023-01-15T10:50:53;1.42;;;1.02;;
51179;SDS011;37243;49.814;8.652;2023-01-15T10:53:26;1.10;;;0.95;;
51179;SDS011;37243;49.814;8.652;2023-01-15T10:56:04;0.80;;;0.80;;
51179;SDS011;37243;49.814;8.652;2023-01-15T10:58:40;1.20;;;1.10;;
51179;SDS011;37243;49.814;8.652;2023-01-15T11:01:14;0.82;;;0.70;;
51179;SDS011;37243;49.814;8.652;2023-01-15T11:03:50;0.80;;;0.80;;
51179;SDS011;37243;49.814;8.652;2023-01-15T11:06:19;0.82;;;0.82;;
51179;SDS011;37243;49.814;8.652;2023-01-15T11:08:50;0.70;;;0.70;;
51179;SDS011;37243;49.814;8.652;2023-01-15T11:11:21;1.02;;;0.93;;
51179;SDS011;37243;49.814;8.652;2023-01-15T11:14:04;1.05;;;0.57;;
51179;SDS011;37243;49.814;8.652;2023-01-15T11:16:45;1.00;;;0.90;;
51179;SDS011;37243;49.814;8.652;2023-01-15T11:19:29;0.80;;;0.80;;
51179;SDS011;37243;49.814;8.652;2023-01-15T11:22:08;1.08;;;0.98;;
51179;SDS011;37243;49.814;8.652;2023-01-15T11:24:45;0.90;;;0.90;;
51179;SDS011;37243;49.814;8.652;2023-01-15T11:27:17;0.80;;;0.80;;
51179;SDS011;37243;49.814;8.652;2023-01-15T11:29:49;1.15;;;0.90;;
51179;SDS011;37243;49.814;8.652;2023-01-15T11:32:21;0.70;;;0.70;;
51179;SDS011;37243;49.814;8.652;2023-01-15T11:34:56;0.82;;;0.82;;
51179;SDS011;37243;49.814;8.652;2023-01-15T11:37:26;0.80;;;0.80;;
51179;SDS011;37243;49.814;8.652;2023-01-15T11:39:55;0.95;;;0.90;;
51179;SDS011;37243;49.814;8.652;2023-01-15T11:42:29;0.85;;;0.85;;
51179;SDS011;37243;49.814;8.652;2023-01-15T11:45:11;0.70;;;0.70;;
51179;SDS011;37243;49.814;8.652;2023-01-15T11:47:55;0.98;;;0.93;;
51179;SDS011;37243;49.814;8.652;2023-01-15T11:50:40;0.80;;;0.80;;
51179;SDS011;37243;49.814;8.652;2023-01-15T11:53:17;1.10;;;1.00;;
51179;SDS011;37243;49.814;8.652;2023-01-15T11:55:50;1.00;;;0.80;;
51179;SDS011;37243;49.814;8.652;2023-01-15T11:58:21;1.00;;;0.93;;
51179;SDS011;37243;49.814;8.652;2023-01-15T12:00:54;0.70;;;0.70;;
51179;SDS011;37243;49.814;8.652;2023-01-15T12:03:24;1.05;;;0.90;;
51179;SDS011;37243;49.814;8.652;2023-01-15T12:05:57;1.10;;;0.68;;
51179;SDS011;37243;49.814;8.652;2023-01-15T12:08:37;0.70;;;0.70;;
51179;SDS011;37243;49.814;8.652;2023-01-15T12:11:18;0.80;;;0.80;;
51179;SDS011;37243;49.814;8.652;2023-01-15T12:14:01;0.63;;;0.63;;
51179;SDS011;37243;49.814;8.652;2023-01-15T12:16:38;0.70;;;0.70;;
51179;SDS011;37243;49.814;8.652;2023-01-15T12:19:13;1.25;;;0.70;;
51179;SDS011;37243;49.814;8.652;2023-01-15T12:21:58;0.98;;;0.73;;
51179;SDS011;37243;49.814;8.652;2023-01-15T12:27:37;0.90;;;0.90;;
51179;SDS011;37243;49.814;8.652;2023-01-15T12:30:20;0.80;;;0.80;;
51179;SDS011;37243;49.814;8.652;2023-01-15T12:32:56;0.82;;;0.60;;
51179;SDS011;37243;49.814;8.652;2023-01-15T12:35:31;0.80;;;0.70;;
51179;SDS011;37243;49.814;8.652;2023-01-15T12:38:07;0.50;;;0.50;;
51179;SDS011;37243;49.814;8.652;2023-01-15T12:40:43;2.03;;;0.80;;
51179;SDS011;37243;49.814;8.652;2023-01-15T12:43:15;0.60;;;0.60;;
51179;SDS011;37243;49.814;8.652;2023-01-15T12:46:02;0.80;;;0.80;;
51179;SDS011;37243;49.814;8.652;2023-01-15T12:48:34;0.93;;;0.70;;
51179;SDS011;37243;49.814;8.652;2023-01-15T12:51:07;1.95;;;1.08;;
51179;SDS011;37243;49.814;8.652;2023-01-15T12:53:44;0.60;;;0.60;;
51179;SDS011;37243;49.814;8.652;2023-01-15T12:56:18;0.77;;;0.77;;
51179;SDS011;37243;49.814;8.652;2023-01-15T12:58:51;0.80;;;0.80;;
51179;SDS011;37243;49.814;8.652;2023-01-15T13:01:25;1.00;;;0.75;;
51179;SDS011;37243;49.814;8.652;2023-01-15T13:04:02;0.82;;;0.77;;
51179;SDS011;37243;49.814;8.652;2023-01-15T13:06:34;1.00;;;0.77;;
51179;SDS011;37243;49.814;8.652;2023-01-15T13:09:13;0.70;;;0.70;;
51179;SDS011;37243;49.814;8.652;2023-01-15T13:11:49;0.75;;;0.75;;
51179;SDS011;37243;49.814;8.652;2023-01-15T13:14:18;0.50;;;0.50;;
51179;SDS011;37243;49.814;8.652;2023-01-15T13:16:50;0.60;;;0.60;;
51179;SDS011;37243;49.814;8.652;2023-01-15T13:19:26;0.77;;;0.77;;
51179;SDS011;37243;49.814;8.652;2023-01-15T13:22:04;0.70;;;0.70;;
51179;SDS011;37243;49.814;8.652;2023-01-15T13:24:54;0.52;;;0.52;;
51179;SDS011;37243;49.814;8.652;2023-01-15T13:30:41;0.90;;;0.82;;
51179;SDS011;37243;49.814;8.652;2023-01-15T13:33:22;0.73;;;0.73;;
51179;SDS011;37243;49.814;8.652;2023-01-15T13:35:55;0.57;;;0.57;;
51179;SDS011;37243;49.814;8.652;2023-01-15T13:38:28;0.80;;;0.80;;
51179;SDS011;37243;49.814;8.652;2023-01-15T13:41:07;0.55;;;0.55;;
51179;SDS011;37243;49.814;8.652;2023-01-15T13:43:37;1.27;;;0.90;;
51179;SDS011;37243;49.814;8.652;2023-01-15T13:46:11;0.70;;;0.70;;
51179;SDS011;37243;49.814;8.652;2023-01-15T13:48:46;1.10;;;0.60;;
51179;SDS011;37243;49.814;8.652;2023-01-15T13:51:21;0.70;;;0.60;;
51179;SDS011;37243;49.814;8.652;2023-01-15T13:53:54;1.08;;;0.70;;
51179;SDS011;37243;49.814;8.652;2023-01-15T13:56:27;0.50;;;0.50;;
51179;SDS011;37243;49.814;8.652;2023-01-15T13:58:58;0.70;;;0.70;;
51179;SDS011;37243;49.814;8.652;2023-01-15T14:01:31;0.52;;;0.52;;
51179;SDS011;37243;49.814;8.652;2023-01-15T14:04:02;0.60;;;0.60;;
51179;SDS011;37243;49.814;8.652;2023-01-15T14:06:36;0.85;;;0.85;;
51179;SDS011;37243;49.814;8.652;2023-01-15T14:09:09;0.60;;;0.60;;
51179;SDS011;37243;49.814;8.652;2023-01-15T14:11:42;0.57;;;0.57;;
51179;SDS011;37243;49.814;8.652;2023-01-15T14:17:44;0.60;;;0.60;;
51179;SDS011;37243;49.814;8.652;2023-01-15T14:20:30;0.80;;;0.70;;
51179;SDS011;37243;49.814;8.652;2023-01-15T14:23:12;0.65;;;0.65;;
51179;SDS011;37243;49.814;8.652;2023-01-15T14:25:53;0.50;;;0.50;;
51179;SDS011;37243;49.814;8.652;2023-01-15T14:28:37;0.50;;;0.50;;
51179;SDS011;37243;49.814;8.652;2023-01-15T14:31:21;0.65;;;0.65;;
51179;SDS011;37243;49.814;8.652;2023-01-15T14:36:45;0.50;;;0.50;;
51179;SDS011;37243;49.814;8.652;2023-01-15T14:42:09;1.08;;;0.50;;
51179;SDS011;37243;49.814;8.652;2023-01-15T14:44:59;0.80;;;0.77;;
51179;SDS011;37243;49.814;8.652;2023-01-15T14:47:33;0.77;;;0.77;;
51179;SDS011;37243;49.814;8.652;2023-01-15T14:52:52;0.55;;;0.55;;
51179;SDS011;37243;49.814;8.652;2023-01-15T14:55:22;0.60;;;0.60;;
51179;SDS011;37243;49.814;8.652;2023-01-15T14:57:54;0.40;;;0.40;;
51179;SDS011;37243;49.814;8.652;2023-01-15T15:00:31;0.38;;;0.38;;
51179;SDS011;37243;49.814;8.652;2023-01-15T15:03:07;0.60;;;0.60;;
51179;SDS011;37243;49.814;8.652;2023-01-15T15:05:43;0.57;;;0.57;;
51179;SDS011;37243;49.814;8.652;2023-01-15T15:08:13;0.45;;;0.45;;
51179;SDS011;37243;49.814;8.652;2023-01-15T15:10:44;0.60;;;0.60;;
51179;SDS011;37243;49.814;8.652;2023-01-15T15:13:21;0.50;;;0.50;;
51179;SDS011;37243;49.814;8.652;2023-01-15T15:16:03;0.43;;;0.43;;
51179;SDS011;37243;49.814;8.652;2023-01-15T15:18:36;0.60;;;0.60;;
51179;SDS011;37243;49.814;8.652;2023-01-15T15:21:10;0.57;;;0.47;;
51179;SDS011;37243;49.814;8.652;2023-01-15T15:23:45;0.63;;;0.63;;
51179;SDS011;37243;49.814;8.652;2023-01-15T15:26:23;0.40;;;0.40;;
51179;SDS011;37243;49.814;8.652;2023-01-15T15:29:03;0.35;;;0.35;;
51179;SDS011;37243;49.814;8.652;2023-01-15T15:31:35;0.45;;;0.45;;
51179;SDS011;37243;49.814;8.652;2023-01-15T15:34:06;0.50;;;0.50;;
51179;SDS011;37243;49.814;8.652;2023-01-15T15:36:43;0.40;;;0.40;;
51179;SDS011;37243;49.814;8.652;2023-01-15T15:39:15;0.65;;;0.65;;
51179;SDS011;37243;49.814;8.652;2023-01-15T15:41:47;0.70;;;0.70;;
51179;SDS011;37243;49.814;8.652;2023-01-15T15:44:31;0.47;;;0.47;;